createdAt,value
2018-07-13T00:00:57.537Z,10.50
2018-07-13T00:01:57.523Z,10.20
2018-07-13T00:02:57.529Z,10.00
2018-07-13T00:03:57.597Z,10.00
2018-07-13T00:04:57.563Z,9.50
2018-07-13T00:05:57.589Z,10.10
2018-07-13T00:06:57.582Z,8.80
2018-07-13T00:07:57.572Z,10.10
2018-07-13T00:08:57.628Z,9.20
2018-07-13T00:09:57.637Z,10.00
2018-07-13T00:10:57.647Z,9.50
2018-07-13T00:11:57.646Z,9.20
2018-07-13T00:12:57.678Z,9.30
2018-07-13T00:13:57.671Z,9.30
2018-07-13T00:14:57.678Z,10.20
2018-07-13T00:15:57.734Z,9.60
2018-07-13T00:16:57.684Z,9.60
2018-07-13T00:17:57.716Z,10.50
2018-07-13T00:18:57.726Z,9.20
2018-07-13T00:19:57.743Z,9.60
2018-07-13T00:20:57.807Z,9.50
2018-07-13T00:21:57.763Z,10.10
2018-07-13T00:22:57.806Z,9.90
2018-07-13T00:23:57.797Z,9.70
2018-07-13T00:24:57.793Z,9.50
2018-07-13T00:25:57.816Z,9.80
2018-07-13T00:26:57.824Z,8.80
2018-07-13T00:27:57.859Z,9.40
2018-07-13T00:28:57.838Z,10.20
2018-07-13T00:29:57.884Z,9.00
2018-07-13T00:30:57.873Z,9.10
2018-07-13T00:31:57.893Z,9.50
2018-07-13T00:32:57.966Z,9.60
2018-07-13T00:33:57.965Z,9.20
2018-07-13T00:34:57.930Z,8.80
2018-07-13T00:35:57.977Z,9.80
2018-07-13T00:36:57.931Z,9.00
2018-07-13T00:37:57.955Z,9.10
2018-07-13T00:38:58.012Z,9.80
2018-07-13T00:39:57.989Z,9.50
2018-07-13T00:40:58.011Z,9.50
2018-07-13T00:41:58.031Z,9.30
2018-07-13T00:42:58.020Z,9.80
2018-07-13T00:43:58.043Z,9.50
2018-07-13T00:44:58.096Z,9.80
2018-07-13T00:45:58.061Z,9.50
2018-07-13T00:46:58.097Z,10.00
2018-07-13T00:47:58.148Z,9.40
2018-07-13T00:48:58.105Z,9.90
2018-07-13T00:49:58.111Z,10.40
2018-07-13T00:50:58.190Z,10.70
2018-07-13T00:51:58.146Z,10.50
2018-07-13T00:52:58.138Z,10.70
2018-07-13T00:53:58.168Z,10.70
2018-07-13T00:54:58.170Z,10.50
2018-07-13T00:55:58.182Z,10.40
2018-07-13T00:56:58.238Z,10.70
2018-07-13T00:57:58.193Z,10.90
2018-07-13T00:58:58.199Z,10.50
2018-07-13T00:59:58.248Z,11.20
2018-07-13T01:00:58.254Z,10.20
2018-07-13T01:01:58.315Z,10.90
2018-07-13T01:02:58.373Z,11.00
2018-07-13T01:03:58.273Z,10.90
2018-07-13T01:04:58.293Z,11.60
2018-07-13T01:05:58.336Z,11.10
2018-07-13T01:06:58.347Z,10.80
2018-07-13T01:07:58.357Z,11.30
2018-07-13T01:08:58.419Z,11.40
2018-07-13T01:09:58.346Z,11.10
2018-07-13T01:10:58.364Z,11.40
2018-07-13T01:11:58.422Z,11.70
2018-07-13T01:12:58.407Z,11.70
2018-07-13T01:13:58.445Z,11.30
2018-07-13T01:14:58.425Z,10.90
2018-07-13T01:15:58.458Z,11.30
2018-07-13T01:16:58.443Z,11.40
2018-07-13T01:17:58.507Z,11.20
2018-07-13T01:18:58.489Z,11.00
2018-07-13T01:19:58.485Z,11.30
2018-07-13T01:20:58.582Z,11.30
2018-07-13T01:21:58.494Z,10.20
2018-07-13T01:22:58.513Z,9.80
2018-07-13T01:23:58.570Z,9.70
2018-07-13T01:24:58.531Z,10.90
2018-07-13T01:25:58.583Z,11.40
2018-07-13T01:26:58.570Z,10.30
2018-07-13T01:27:58.587Z,10.30
2018-07-13T01:28:58.593Z,11.00
2018-07-13T01:29:58.599Z,10.00
2018-07-13T01:30:58.633Z,10.20
2018-07-13T01:31:58.637Z,9.80
2018-07-13T01:32:58.642Z,10.10
2018-07-13T01:33:58.678Z,11.10
2018-07-13T01:34:58.662Z,10.80
2018-07-13T01:35:58.686Z,10.40
2018-07-13T01:36:58.690Z,10.60
2018-07-13T01:37:58.699Z,10.80
2018-07-13T01:38:58.778Z,10.40
2018-07-13T01:39:58.727Z,10.70
2018-07-13T01:40:58.739Z,11.40
2018-07-13T01:41:58.755Z,10.60
2018-07-13T01:42:58.768Z,10.70
2018-07-13T01:43:58.769Z,10.90
2018-07-13T01:44:58.863Z,10.90
2018-07-13T01:45:58.810Z,10.90
2018-07-13T01:46:58.827Z,10.30
2018-07-13T01:47:58.812Z,10.90
2018-07-13T01:48:58.842Z,10.50
2018-07-13T01:49:58.898Z,11.50
2018-07-13T01:50:58.859Z,10.80
2018-07-13T01:51:58.865Z,11.30
2018-07-13T01:52:58.939Z,11.10
2018-07-13T01:53:58.909Z,10.70
2018-07-13T01:54:58.918Z,11.50
2018-07-13T01:55:58.926Z,10.70
2018-07-13T01:56:58.938Z,11.10
2018-07-13T01:57:58.959Z,11.10
2018-07-13T01:58:58.993Z,10.90
2018-07-13T01:59:58.974Z,11.60
2018-07-13T02:00:58.990Z,11.00
2018-07-13T02:01:59.009Z,10.20
2018-07-13T02:02:59.064Z,10.20
2018-07-13T02:03:59.083Z,10.80
2018-07-13T02:04:59.042Z,10.10
2018-07-13T02:05:59.042Z,10.80
2018-07-13T02:06:59.057Z,10.40
2018-07-13T02:07:59.062Z,10.80
2018-07-13T02:08:59.137Z,10.30
2018-07-13T02:09:59.128Z,10.70
2018-07-13T02:10:59.145Z,9.80
2018-07-13T02:11:59.122Z,10.50
2018-07-13T02:12:59.138Z,10.20
2018-07-13T02:13:59.216Z,10.50
2018-07-13T02:14:59.173Z,10.30
2018-07-13T02:15:59.221Z,10.20
2018-07-13T02:16:59.180Z,10.00
2018-07-13T02:17:59.323Z,10.30
2018-07-13T02:18:59.204Z,9.80
2018-07-13T02:19:59.220Z,10.10
2018-07-13T02:20:59.270Z,10.10
2018-07-13T02:21:59.277Z,10.80
2018-07-13T02:22:59.258Z,10.20
2018-07-13T02:23:59.338Z,10.00
2018-07-13T02:24:59.268Z,11.00
2018-07-13T02:25:59.285Z,10.80
2018-07-13T02:26:59.352Z,10.30
2018-07-13T02:27:59.313Z,10.20
2018-07-13T02:28:59.368Z,10.50
2018-07-13T02:29:59.403Z,12.20
2018-07-13T02:30:59.357Z,10.80
2018-07-13T02:31:59.361Z,10.60
2018-07-13T02:32:59.470Z,10.60
2018-07-13T02:33:59.553Z,11.00
2018-07-13T02:34:59.425Z,10.70
2018-07-13T02:35:59.429Z,10.40
2018-07-13T02:36:59.419Z,10.60
2018-07-13T02:37:59.486Z,10.60
2018-07-13T02:38:59.607Z,10.10
2018-07-13T02:39:59.495Z,11.10
2018-07-13T02:40:59.469Z,10.60
2018-07-13T02:41:59.575Z,11.00
2018-07-13T02:42:59.495Z,10.60
2018-07-13T02:43:59.505Z,10.80
2018-07-13T02:44:59.600Z,10.70
2018-07-13T02:45:59.516Z,10.50
2018-07-13T02:46:59.575Z,11.50
2018-07-13T02:47:59.603Z,11.00
2018-07-13T02:48:59.590Z,11.00
2018-07-13T02:49:59.563Z,11.00
2018-07-13T02:50:59.598Z,11.30
2018-07-13T02:51:59.638Z,11.10
2018-07-13T02:52:59.641Z,10.80
2018-07-13T02:53:59.665Z,10.50
2018-07-13T02:54:59.649Z,10.70
2018-07-13T02:55:59.651Z,10.60
2018-07-13T02:56:59.698Z,11.30
2018-07-13T02:57:59.679Z,10.60
2018-07-13T02:58:59.731Z,11.50
2018-07-13T02:59:59.720Z,12.40
2018-07-13T03:00:59.708Z,11.80
2018-07-13T03:01:59.734Z,11.70
2018-07-13T03:02:59.754Z,11.50
2018-07-13T03:03:59.797Z,10.80
2018-07-13T03:04:59.804Z,11.30
2018-07-13T03:05:59.774Z,11.00
2018-07-13T03:06:59.788Z,10.70
2018-07-13T03:07:59.810Z,11.50
2018-07-13T03:08:59.808Z,11.30
2018-07-13T03:09:59.855Z,10.90
2018-07-13T03:10:59.912Z,10.80
2018-07-13T03:11:59.861Z,11.30
2018-07-13T03:12:59.891Z,10.70
2018-07-13T03:13:59.871Z,10.60
2018-07-13T03:14:59.928Z,10.80
2018-07-13T03:15:59.918Z,10.70
2018-07-13T03:16:59.908Z,10.40
2018-07-13T03:17:59.978Z,10.40
2018-07-13T03:18:59.945Z,10.80
2018-07-13T03:19:59.969Z,11.60
2018-07-13T03:20:59.962Z,11.40
2018-07-13T03:21:59.994Z,11.40
2018-07-13T03:23:00.012Z,11.40
2018-07-13T03:23:59.999Z,12.40
2018-07-13T03:25:00.016Z,11.00
2018-07-13T03:26:00.034Z,10.80
2018-07-13T03:27:00.046Z,10.60
2018-07-13T03:28:00.071Z,10.50
2018-07-13T03:29:00.062Z,10.90
2018-07-13T03:30:00.201Z,9.80
2018-07-13T03:31:00.099Z,10.00
2018-07-13T03:32:00.126Z,10.10
2018-07-13T03:33:00.126Z,10.50
2018-07-13T03:34:00.105Z,10.20
2018-07-13T03:35:00.189Z,9.30
2018-07-13T03:36:00.180Z,10.20
2018-07-13T03:37:00.177Z,10.20
2018-07-13T03:38:00.221Z,10.70
2018-07-13T03:39:00.169Z,9.70
2018-07-13T03:40:00.184Z,9.70
2018-07-13T03:41:00.269Z,9.60
2018-07-13T03:42:00.257Z,10.30
2018-07-13T03:43:00.225Z,9.80
2018-07-13T03:44:00.252Z,10.50
2018-07-13T03:45:00.248Z,10.90
2018-07-13T03:46:00.256Z,10.20
2018-07-13T03:47:00.308Z,9.50
2018-07-13T03:48:00.325Z,9.20
2018-07-13T03:49:00.294Z,9.70
2018-07-13T03:50:00.310Z,9.60
2018-07-13T03:51:00.318Z,10.00
2018-07-13T03:52:00.387Z,9.80
2018-07-13T03:53:00.391Z,9.50
2018-07-13T03:54:00.413Z,9.80
2018-07-13T03:55:00.381Z,10.50
2018-07-13T03:56:00.391Z,9.30
2018-07-13T03:57:00.398Z,9.00
2018-07-13T03:58:00.442Z,9.20
2018-07-13T03:59:00.469Z,9.30
2018-07-13T04:00:00.454Z,9.20
2018-07-13T04:01:00.462Z,8.70
2018-07-13T04:02:00.463Z,9.00
2018-07-13T04:03:00.517Z,8.50
2018-07-13T04:04:00.518Z,8.70
2018-07-13T04:05:00.504Z,8.80
2018-07-13T04:06:00.525Z,9.10
2018-07-13T04:07:00.544Z,8.80
2018-07-13T04:08:00.535Z,8.30
2018-07-13T04:09:00.576Z,8.60
2018-07-13T04:10:00.609Z,8.80
2018-07-13T04:11:00.578Z,8.50
2018-07-13T04:12:00.599Z,8.30
2018-07-13T04:13:00.598Z,8.10
2018-07-13T04:14:00.596Z,7.90
2018-07-13T04:15:00.665Z,8.00
2018-07-13T04:16:00.632Z,9.20
2018-07-13T04:17:00.670Z,8.40
2018-07-13T04:18:00.649Z,8.30
2018-07-13T04:19:00.668Z,8.60
2018-07-13T04:20:00.752Z,8.60
2018-07-13T04:21:00.718Z,8.00
2018-07-13T04:22:00.701Z,8.10
2018-07-13T04:23:00.726Z,8.50
2018-07-13T04:24:00.732Z,8.10
2018-07-13T04:25:00.789Z,8.20
2018-07-13T04:26:00.813Z,8.20
2018-07-13T04:27:00.820Z,8.30
2018-07-13T04:28:00.796Z,8.10
2018-07-13T04:29:00.804Z,8.10
2018-07-13T04:30:00.822Z,8.30
2018-07-13T04:31:00.825Z,8.80
2018-07-13T04:32:01.089Z,8.00
2018-07-13T04:33:00.853Z,8.50
2018-07-13T04:34:00.884Z,8.10
2018-07-13T04:35:00.877Z,8.40
2018-07-13T04:36:00.919Z,8.30
2018-07-13T04:37:00.927Z,8.60
2018-07-13T04:38:01.007Z,8.40
2018-07-13T04:39:01.315Z,8.70
2018-07-13T04:40:00.936Z,8.70
2018-07-13T04:41:00.993Z,8.30
2018-07-13T04:42:01.010Z,8.60
2018-07-13T04:43:01.058Z,8.50
2018-07-13T04:44:01.009Z,8.50
2018-07-13T04:45:01.104Z,8.50
2018-07-13T04:46:01.042Z,8.60
2018-07-13T04:47:01.061Z,8.50
2018-07-13T04:48:01.045Z,8.50
2018-07-13T04:49:01.114Z,8.10
2018-07-13T04:50:01.110Z,8.60
2018-07-13T04:51:01.075Z,8.70
2018-07-13T04:52:01.101Z,8.80
2018-07-13T04:53:01.118Z,8.40
2018-07-13T04:54:01.142Z,8.90
2018-07-13T04:55:01.163Z,8.60
2018-07-13T04:56:01.187Z,8.80
2018-07-13T04:57:01.157Z,8.30
2018-07-13T04:58:01.180Z,8.50
2018-07-13T04:59:01.184Z,8.70
2018-07-13T05:00:01.259Z,8.50
2018-07-13T05:01:01.276Z,8.60
2018-07-13T05:02:01.289Z,8.40
2018-07-13T05:03:01.346Z,8.50
2018-07-13T05:04:01.245Z,8.20
2018-07-13T05:05:01.286Z,8.50
2018-07-13T05:06:01.277Z,8.90
2018-07-13T05:07:01.357Z,8.80
2018-07-13T05:08:01.347Z,9.20
2018-07-13T05:09:01.342Z,9.00
2018-07-13T05:10:01.349Z,8.30
2018-07-13T05:11:01.361Z,8.50
2018-07-13T05:12:01.378Z,8.30
2018-07-13T05:13:01.410Z,8.50
2018-07-13T05:14:01.398Z,8.70
2018-07-13T05:15:01.420Z,8.60
2018-07-13T05:16:01.425Z,8.70
2018-07-13T05:17:01.427Z,8.70
2018-07-13T05:18:01.470Z,8.70
2018-07-13T05:19:01.450Z,8.40
2018-07-13T05:20:01.526Z,8.60
2018-07-13T05:21:01.488Z,7.80
2018-07-13T05:22:01.496Z,8.00
2018-07-13T05:23:01.531Z,8.00
2018-07-13T05:24:01.539Z,8.70
2018-07-13T05:25:01.592Z,8.10
2018-07-13T05:26:01.552Z,8.00
2018-07-13T05:27:01.635Z,8.20
2018-07-13T05:28:01.595Z,7.80
2018-07-13T05:29:01.617Z,7.80
2018-07-13T05:30:01.650Z,8.00
2018-07-13T05:31:01.631Z,8.30
2018-07-13T05:32:01.689Z,7.80
2018-07-13T05:33:01.671Z,8.40
2018-07-13T05:34:01.828Z,8.20
2018-07-13T05:35:01.717Z,8.40
2018-07-13T05:36:01.717Z,8.80
2018-07-13T05:37:01.775Z,8.80
2018-07-13T05:38:01.767Z,8.70
2018-07-13T05:39:01.820Z,8.30
2018-07-13T05:40:01.770Z,7.90
2018-07-13T05:41:01.832Z,8.10
2018-07-13T05:42:01.816Z,8.20
2018-07-13T05:43:01.833Z,8.40
2018-07-13T05:44:01.880Z,9.30
2018-07-13T05:45:01.926Z,8.70
2018-07-13T05:46:01.885Z,9.10
2018-07-13T05:47:01.881Z,8.80
2018-07-13T05:48:01.909Z,8.90
2018-07-13T05:49:01.944Z,9.00
2018-07-13T05:50:01.975Z,8.80
2018-07-13T05:51:01.957Z,9.30
2018-07-13T05:52:01.964Z,9.60
2018-07-13T05:53:01.984Z,9.70
2018-07-13T05:54:02.033Z,9.30
2018-07-13T05:55:02.084Z,9.50
2018-07-13T05:56:02.057Z,9.70
2018-07-13T05:57:02.042Z,9.10
2018-07-13T05:58:02.234Z,9.20
2018-07-13T05:59:02.087Z,10.40
2018-07-13T06:00:02.125Z,9.90
2018-07-13T06:01:02.115Z,9.60
2018-07-13T06:02:02.156Z,10.30
2018-07-13T06:03:02.144Z,10.40
2018-07-13T06:04:02.165Z,10.10
2018-07-13T06:05:02.197Z,10.60
2018-07-13T06:06:02.191Z,10.40
2018-07-13T06:07:02.223Z,11.40
2018-07-13T06:08:02.227Z,11.40
2018-07-13T06:09:02.261Z,11.00
2018-07-13T06:10:02.244Z,11.20
2018-07-13T06:11:02.262Z,11.60
2018-07-13T06:12:02.411Z,11.10
2018-07-13T06:13:02.287Z,11.40
2018-07-13T06:14:02.326Z,11.00
2018-07-13T06:15:02.405Z,11.10
2018-07-13T06:16:02.362Z,11.40
2018-07-13T06:17:02.384Z,11.30
2018-07-13T06:18:02.395Z,11.40
2018-07-13T06:19:02.410Z,11.10
2018-07-13T06:20:02.427Z,11.10
2018-07-13T06:21:02.589Z,11.50
2018-07-13T06:22:02.462Z,11.20
2018-07-13T06:23:02.436Z,10.80
2018-07-13T06:24:02.488Z,10.50
2018-07-13T06:25:02.489Z,10.40
2018-07-13T06:26:02.498Z,10.60
2018-07-13T06:27:02.531Z,10.00
2018-07-13T06:28:02.523Z,10.50
2018-07-13T06:29:02.520Z,10.20
2018-07-13T06:30:02.556Z,11.20
2018-07-13T06:31:02.561Z,10.80
2018-07-13T06:32:03.082Z,10.90
2018-07-13T06:33:02.580Z,10.70
2018-07-13T06:34:02.828Z,11.30
2018-07-13T06:35:02.606Z,11.00
2018-07-13T06:36:02.618Z,11.80
2018-07-13T06:37:02.676Z,11.80
2018-07-13T06:38:02.673Z,11.50
2018-07-13T06:39:02.682Z,12.40
2018-07-13T06:40:02.702Z,10.60
2018-07-13T06:41:02.692Z,11.20
2018-07-13T06:42:02.753Z,12.20
2018-07-13T06:43:02.725Z,13.40
2018-07-13T06:44:02.798Z,12.00
2018-07-13T06:45:02.777Z,11.60
2018-07-13T06:46:02.782Z,11.60
2018-07-13T06:47:02.784Z,11.20
2018-07-13T06:48:02.845Z,11.80
2018-07-13T06:49:02.871Z,11.60
2018-07-13T06:50:02.836Z,12.10
2018-07-13T06:51:02.880Z,11.70
2018-07-13T06:52:02.848Z,12.40
2018-07-13T06:53:02.873Z,12.00
2018-07-13T06:54:02.917Z,12.10
2018-07-13T06:55:02.923Z,12.20
2018-07-13T06:56:02.905Z,12.20
2018-07-13T06:57:02.941Z,12.20
2018-07-13T06:58:02.939Z,12.50
2018-07-13T06:59:03.002Z,12.60
2018-07-13T07:00:02.993Z,13.00
2018-07-13T07:01:03.031Z,12.90
2018-07-13T07:02:03.002Z,12.70
2018-07-13T07:03:03.011Z,12.80
2018-07-13T07:04:03.015Z,12.80
2018-07-13T07:05:03.037Z,12.30
2018-07-13T07:06:03.072Z,12.60
2018-07-13T07:07:03.089Z,12.30
2018-07-13T07:08:03.078Z,18.90
2018-07-13T07:09:03.145Z,13.50
2018-07-13T07:10:03.102Z,13.40
2018-07-13T07:11:03.143Z,14.00
2018-07-13T07:12:03.176Z,13.30
2018-07-13T07:13:03.154Z,13.70
2018-07-13T07:14:03.154Z,13.70
2018-07-13T07:15:03.198Z,13.30
2018-07-13T07:16:03.320Z,13.70
2018-07-13T07:17:03.224Z,14.30
2018-07-13T07:18:03.202Z,14.30
2018-07-13T07:19:03.255Z,13.90
2018-07-13T07:20:03.283Z,14.40
2018-07-13T07:21:03.292Z,15.60
2018-07-13T07:22:03.273Z,15.00
2018-07-13T07:23:03.285Z,14.50
2018-07-13T07:24:03.335Z,15.50
2018-07-13T07:25:03.311Z,15.40
2018-07-13T07:26:03.390Z,15.00
2018-07-13T07:27:03.321Z,15.60
2018-07-13T07:28:03.351Z,16.20
2018-07-13T07:29:03.378Z,16.00
2018-07-13T07:30:03.394Z,15.80
2018-07-13T07:31:03.421Z,15.80
2018-07-13T07:32:03.401Z,15.60
2018-07-13T07:33:03.436Z,15.70
2018-07-13T07:34:03.470Z,15.00
2018-07-13T07:35:03.446Z,15.60
2018-07-13T07:36:03.504Z,15.60
2018-07-13T07:37:03.461Z,15.80
2018-07-13T07:38:03.549Z,15.50
2018-07-13T07:39:03.510Z,15.30
2018-07-13T07:40:03.519Z,15.90
2018-07-13T07:41:03.561Z,15.40
2018-07-13T07:42:03.528Z,15.60
2018-07-13T07:43:04.429Z,16.10
2018-07-13T07:44:03.671Z,16.20
2018-07-13T07:45:03.617Z,16.20
2018-07-13T07:46:03.625Z,16.50
2018-07-13T07:47:03.599Z,16.30
2018-07-13T07:48:03.617Z,17.40
2018-07-13T07:49:03.673Z,16.90
2018-07-13T07:50:03.715Z,17.50
2018-07-13T07:51:03.722Z,17.50
2018-07-13T07:52:03.694Z,17.60
2018-07-13T07:53:03.808Z,18.00
2018-07-13T07:54:03.697Z,17.50
2018-07-13T07:55:03.708Z,18.50
2018-07-13T07:56:03.768Z,18.10
2018-07-13T07:57:03.729Z,19.20
2018-07-13T07:58:03.795Z,18.90
2018-07-13T07:59:03.786Z,18.80
2018-07-13T08:00:03.766Z,18.50
2018-07-13T08:01:03.831Z,18.80
2018-07-13T08:02:03.804Z,19.10
2018-07-13T08:03:03.896Z,19.90
2018-07-13T08:04:03.819Z,19.40
2018-07-13T08:05:03.865Z,19.90
2018-07-13T08:06:03.912Z,19.60
2018-07-13T08:07:04.337Z,19.40
2018-07-13T08:08:03.912Z,19.60
2018-07-13T08:09:03.905Z,18.40
2018-07-13T08:10:03.979Z,19.80
2018-07-13T08:11:03.962Z,19.30
2018-07-13T08:12:03.934Z,20.30
2018-07-13T08:13:04.090Z,19.70
2018-07-13T08:14:04.187Z,19.60
2018-07-13T08:15:04.010Z,19.40
2018-07-13T08:16:04.049Z,20.60
2018-07-13T08:17:04.022Z,20.00
2018-07-13T08:18:04.025Z,20.90
2018-07-13T08:19:04.030Z,21.80
2018-07-13T08:20:04.044Z,21.60
2018-07-13T08:21:04.092Z,22.70
2018-07-13T08:22:04.060Z,23.90
2018-07-13T08:23:04.623Z,24.50
2018-07-13T08:24:04.075Z,24.80
2018-07-13T08:25:04.121Z,24.30
2018-07-13T08:26:04.112Z,25.40
2018-07-13T08:27:04.133Z,24.80
2018-07-13T08:28:04.184Z,25.90
2018-07-13T08:29:04.150Z,25.60
2018-07-13T08:30:04.157Z,25.60
2018-07-13T08:31:04.203Z,26.40
2018-07-13T08:32:04.185Z,27.30
2018-07-13T08:33:04.395Z,27.30
2018-07-13T08:34:04.210Z,28.70
2018-07-13T08:35:04.267Z,27.40
2018-07-13T08:36:04.244Z,26.40
2018-07-13T08:37:04.255Z,27.50
2018-07-13T08:38:04.327Z,27.60
2018-07-13T08:39:04.328Z,27.20
2018-07-13T08:40:04.354Z,27.20
2018-07-13T08:41:04.450Z,27.20
2018-07-13T08:42:04.329Z,28.40
2018-07-13T08:43:04.368Z,28.80
2018-07-13T08:44:04.440Z,29.20
2018-07-13T08:45:04.371Z,29.00
2018-07-13T08:46:04.368Z,28.20
2018-07-13T08:47:04.397Z,29.20
2018-07-13T08:48:04.417Z,30.00
2018-07-13T08:49:04.464Z,28.80
2018-07-13T08:50:04.444Z,29.80
2018-07-13T08:51:04.450Z,31.10
2018-07-13T08:52:04.496Z,31.70
2018-07-13T08:53:04.538Z,29.90
2018-07-13T08:54:04.478Z,29.50
2018-07-13T08:55:04.527Z,29.70
2018-07-13T08:56:04.553Z,29.60
2018-07-13T08:57:04.524Z,29.50
2018-07-13T08:58:04.565Z,30.70
2018-07-13T08:59:04.802Z,31.30
2018-07-13T09:00:04.619Z,30.70
2018-07-13T09:01:04.571Z,31.30
2018-07-13T09:02:04.591Z,31.20
2018-07-13T09:03:04.605Z,30.90
2018-07-13T09:04:04.896Z,31.50
2018-07-13T09:05:04.655Z,32.40
2018-07-13T09:06:04.650Z,32.40
2018-07-13T09:07:04.652Z,33.60
2018-07-13T09:08:04.699Z,33.20
2018-07-13T09:09:04.704Z,32.90
2018-07-13T09:10:04.739Z,32.50
2018-07-13T09:11:04.750Z,31.80
2018-07-13T09:12:04.716Z,31.40
2018-07-13T09:13:04.754Z,31.40
2018-07-13T09:14:04.764Z,32.20
2018-07-13T09:15:04.791Z,32.00
2018-07-13T09:16:04.771Z,31.80
2018-07-13T09:17:04.788Z,31.50
2018-07-13T09:18:04.854Z,31.00
2018-07-13T09:19:04.824Z,32.10
2018-07-13T09:20:04.819Z,31.90
2018-07-13T09:21:04.822Z,32.20
2018-07-13T09:22:04.881Z,32.90
2018-07-13T09:23:04.877Z,32.30
2018-07-13T09:24:04.966Z,32.10
2018-07-13T09:25:04.893Z,31.70
2018-07-13T09:26:04.907Z,32.40
2018-07-13T09:27:04.910Z,31.00
2018-07-13T09:28:04.929Z,32.30
2018-07-13T09:29:05.006Z,30.70
2018-07-13T09:30:04.984Z,31.00
2018-07-13T09:31:04.984Z,31.70
2018-07-13T09:32:04.997Z,31.60
2018-07-13T09:33:04.994Z,31.30
2018-07-13T09:34:05.094Z,32.00
2018-07-13T09:35:05.008Z,31.80
2018-07-13T09:36:05.015Z,31.50
2018-07-13T09:37:05.084Z,31.30
2018-07-13T09:38:05.114Z,31.30
2018-07-13T09:39:05.092Z,31.20
2018-07-13T09:40:05.098Z,30.40
2018-07-13T09:41:05.150Z,30.50
2018-07-13T09:42:05.109Z,30.70
2018-07-13T09:43:05.122Z,31.50
2018-07-13T09:44:05.278Z,30.80
2018-07-13T09:45:05.152Z,30.20
2018-07-13T09:46:05.184Z,31.20
2018-07-13T09:47:05.255Z,28.80
2018-07-13T09:48:05.214Z,29.30
2018-07-13T09:49:05.197Z,29.30
2018-07-13T09:50:05.214Z,29.00
2018-07-13T09:51:05.223Z,27.80
2018-07-13T09:52:05.278Z,28.00
2018-07-13T09:53:05.279Z,27.70
2018-07-13T09:54:05.313Z,26.30
2018-07-13T09:55:05.304Z,25.60
2018-07-13T09:56:05.340Z,26.00
2018-07-13T09:57:05.350Z,25.20
2018-07-13T09:58:05.321Z,26.30
2018-07-13T09:59:05.333Z,25.20
2018-07-13T10:00:05.391Z,25.80
2018-07-13T10:01:05.376Z,26.50
2018-07-13T10:02:05.390Z,26.20
2018-07-13T10:03:05.424Z,25.00
2018-07-13T10:04:05.413Z,25.70
2018-07-13T10:05:05.456Z,26.50
2018-07-13T10:06:05.816Z,25.00
2018-07-13T10:07:05.443Z,25.30
2018-07-13T10:08:05.445Z,25.40
2018-07-13T10:09:05.462Z,24.80
2018-07-13T10:10:05.508Z,24.60
2018-07-13T10:11:05.508Z,24.00
2018-07-13T10:12:05.511Z,24.20
2018-07-13T10:13:05.516Z,24.20
2018-07-13T10:14:05.530Z,24.20
2018-07-13T10:15:05.589Z,23.80
2018-07-13T10:16:05.585Z,23.60
2018-07-13T10:17:05.586Z,24.00
2018-07-13T10:18:05.607Z,23.70
2018-07-13T10:19:05.608Z,23.50
2018-07-13T10:20:05.680Z,23.90
2018-07-13T10:21:05.684Z,22.80
2018-07-13T10:22:05.660Z,22.70
2018-07-13T10:23:05.646Z,23.60
2018-07-13T10:24:05.665Z,23.70
2018-07-13T10:25:05.661Z,23.40
2018-07-13T10:26:05.710Z,22.70
2018-07-13T10:27:05.732Z,24.00
2018-07-13T10:28:05.763Z,23.00
2018-07-13T10:29:05.742Z,22.70
2018-07-13T10:30:05.746Z,22.60
2018-07-13T10:31:05.746Z,22.20
2018-07-13T10:32:05.802Z,22.00
2018-07-13T10:33:05.808Z,22.20
2018-07-13T10:34:05.783Z,22.50
2018-07-13T10:35:05.821Z,23.40
2018-07-13T10:36:05.834Z,23.40
2018-07-13T10:37:05.891Z,22.90
2018-07-13T10:38:05.860Z,22.80
2018-07-13T10:39:05.866Z,23.40
2018-07-13T10:40:05.865Z,23.20
2018-07-13T10:41:05.950Z,22.80
2018-07-13T10:42:05.925Z,22.90
2018-07-13T10:43:06.012Z,22.80
2018-07-13T10:44:05.938Z,23.10
2018-07-13T10:45:05.959Z,23.30
2018-07-13T10:46:05.950Z,23.50
2018-07-13T10:47:06.024Z,22.60
2018-07-13T10:48:06.029Z,23.10
2018-07-13T10:49:06.019Z,21.90
2018-07-13T10:50:06.031Z,21.80
2018-07-13T10:51:06.018Z,21.20
2018-07-13T10:52:06.053Z,21.50
2018-07-13T10:53:06.096Z,20.80
2018-07-13T10:54:06.058Z,20.90
2018-07-13T10:55:06.073Z,21.10
2018-07-13T10:56:06.204Z,19.60
2018-07-13T10:57:06.140Z,19.20
2018-07-13T10:58:06.198Z,20.10
2018-07-13T10:59:06.147Z,20.50
2018-07-13T11:00:06.184Z,21.00
2018-07-13T11:01:06.214Z,19.70
2018-07-13T11:02:06.176Z,19.40
2018-07-13T11:03:06.195Z,19.90
2018-07-13T11:04:06.229Z,17.40
2018-07-13T11:05:06.239Z,17.90
2018-07-13T11:06:06.325Z,17.40
2018-07-13T11:07:06.300Z,17.30
2018-07-13T11:08:06.309Z,16.50
2018-07-13T11:09:06.299Z,16.30
2018-07-13T11:10:06.319Z,16.80
2018-07-13T11:11:06.295Z,17.10
2018-07-13T11:12:06.310Z,16.80
2018-07-13T11:13:06.320Z,17.10
2018-07-13T11:14:06.410Z,17.90
2018-07-13T11:15:06.412Z,17.00
2018-07-13T11:16:06.371Z,17.10
2018-07-13T11:17:06.381Z,17.60
2018-07-13T11:18:06.391Z,18.10
2018-07-13T11:19:06.424Z,18.20
2018-07-13T11:20:06.477Z,18.10
2018-07-13T11:21:06.443Z,19.60
2018-07-13T11:22:06.560Z,18.30
2018-07-13T11:23:06.462Z,18.40
2018-07-13T11:24:06.516Z,20.00
2018-07-13T11:25:06.517Z,18.30
2018-07-13T11:26:06.505Z,18.20
2018-07-13T11:27:06.531Z,18.20
2018-07-13T11:28:06.623Z,18.70
2018-07-13T11:29:06.558Z,18.70
2018-07-13T11:30:06.557Z,18.10
2018-07-13T11:31:06.599Z,20.40
2018-07-13T11:32:06.576Z,19.30
2018-07-13T11:33:06.641Z,18.80
2018-07-13T11:34:06.601Z,18.60
2018-07-13T11:35:06.779Z,18.50
2018-07-13T11:36:06.651Z,19.00
2018-07-13T11:37:06.860Z,18.20
2018-07-13T11:38:06.715Z,17.70
2018-07-13T11:39:06.680Z,18.10
2018-07-13T11:40:06.692Z,18.30
2018-07-13T11:41:06.723Z,17.40
2018-07-13T11:42:06.746Z,17.40
2018-07-13T11:43:06.748Z,17.60
2018-07-13T11:44:06.805Z,17.40
2018-07-13T11:45:06.764Z,17.80
2018-07-13T11:46:06.813Z,18.10
2018-07-13T11:47:06.781Z,17.50
2018-07-13T11:48:06.876Z,17.40
2018-07-13T11:49:06.815Z,17.20
2018-07-13T11:50:06.847Z,16.70
2018-07-13T11:51:06.857Z,16.10
2018-07-13T11:52:06.898Z,16.80
2018-07-13T11:53:06.911Z,17.10
2018-07-13T11:54:06.877Z,16.60
2018-07-13T11:55:06.903Z,15.70
2018-07-13T11:56:06.935Z,15.30
2018-07-13T11:57:06.946Z,16.00
2018-07-13T11:58:06.970Z,15.30
2018-07-13T11:59:06.959Z,15.80
2018-07-13T12:00:07.052Z,16.60
2018-07-13T12:01:06.977Z,13.70
2018-07-13T12:02:06.988Z,13.00
2018-07-13T12:03:06.999Z,12.90
2018-07-13T12:04:07.053Z,12.80
2018-07-13T12:05:07.155Z,12.20
2018-07-13T12:06:07.095Z,12.80
2018-07-13T12:07:07.056Z,13.10
2018-07-13T12:08:07.200Z,13.30
2018-07-13T12:09:07.086Z,12.90
2018-07-13T12:10:07.109Z,12.00
2018-07-13T12:11:07.135Z,12.90
2018-07-13T12:12:07.165Z,12.10
2018-07-13T12:13:07.175Z,13.20
2018-07-13T12:14:07.247Z,12.30
2018-07-13T12:15:07.167Z,12.50
2018-07-13T12:16:07.182Z,12.30
2018-07-13T12:17:07.219Z,11.90
2018-07-13T12:18:07.219Z,12.20
2018-07-13T12:19:07.284Z,11.70
2018-07-13T12:20:07.272Z,11.30
2018-07-13T12:21:07.264Z,11.50
2018-07-13T12:22:07.277Z,11.50
2018-07-13T12:23:07.336Z,10.90
2018-07-13T12:24:07.302Z,10.60
2018-07-13T12:25:07.304Z,9.00
2018-07-13T12:26:07.348Z,9.30
2018-07-13T12:27:07.355Z,9.60
2018-07-13T12:28:07.369Z,9.70
2018-07-13T12:29:07.374Z,9.60
2018-07-13T12:30:07.548Z,9.60
2018-07-13T12:31:07.391Z,9.70
2018-07-13T12:32:07.418Z,8.60
2018-07-13T12:33:07.441Z,9.70
2018-07-13T12:34:07.457Z,9.40
2018-07-13T12:35:07.498Z,9.40
2018-07-13T12:36:07.471Z,9.40
2018-07-13T12:37:07.527Z,9.30
2018-07-13T12:38:07.512Z,9.00
2018-07-13T12:39:07.516Z,10.10
2018-07-13T12:40:07.592Z,9.40
2018-07-13T12:41:07.546Z,9.60
2018-07-13T12:42:07.633Z,9.30
2018-07-13T12:43:07.672Z,9.60
2018-07-13T12:44:07.572Z,10.20
2018-07-13T12:45:07.647Z,11.20
2018-07-13T12:46:07.712Z,10.10
2018-07-13T12:47:07.627Z,10.10
2018-07-13T12:48:07.646Z,10.20
2018-07-13T12:49:07.734Z,9.80
2018-07-13T12:50:07.712Z,9.70
2018-07-13T12:51:07.676Z,10.20
2018-07-13T12:52:07.738Z,10.20
2018-07-13T12:53:07.773Z,9.90
2018-07-13T12:54:07.831Z,10.40
2018-07-13T12:55:07.738Z,9.70
2018-07-13T12:56:07.753Z,9.30
2018-07-13T12:57:07.816Z,9.90
2018-07-13T12:58:07.829Z,9.60
2018-07-13T12:59:07.842Z,9.50
2018-07-13T13:00:07.844Z,9.20